sensor_id;sensor_type;location;lat;lon;timestamp;pressure;altitude;pressure_sealevel;temperature;humidity
20023;BME280;10172;42.054;24.546;2022-09-13T00:01:52;97856.34;;;18.05;75.58
20023;BME280;10172;42.054;24.546;2022-09-13T00:04:17;97850.47;;;18.09;75.27
20023;BME280;10172;42.054;24.546;2022-09-13T00:06:43;97859.75;;;18.15;75.34
20023;BME280;10172;42.054;24.546;2022-09-13T00:09:08;97867.75;;;17.99;76.98
20023;BME280;10172;42.054;24.546;2022-09-13T00:11:34;97861.56;;;18.06;76.30
20023;BME280;10172;42.054;24.546;2022-09-13T00:13:59;97855.16;;;18.41;74.71
20023;BME280;10172;42.054;24.546;2022-09-13T00:16:27;97856.63;;;18.77;73.40
20023;BME280;10172;42.054;24.546;2022-09-13T00:18:53;97851.22;;;18.19;75.94
20023;BME280;10172;42.054;24.546;2022-09-13T00:21:20;97855.25;;;18.57;74.27
20023;BME280;10172;42.054;24.546;2022-09-13T00:23:49;97852.13;;;18.44;75.29
20023;BME280;10172;42.054;24.546;2022-09-13T00:26:20;97846.22;;;17.99;76.80
20023;BME280;10172;42.054;24.546;2022-09-13T00:28:50;97850.28;;;18.03;76.53
20023;BME280;10172;42.054;24.546;2022-09-13T00:31:16;97850.50;;;17.58;78.92
20023;BME280;10172;42.054;24.546;2022-09-13T00:33:41;97834.59;;;17.64;78.43
20023;BME280;10172;42.054;24.546;2022-09-13T00:36:09;97839.69;;;17.75;79.03
20023;BME280;10172;42.054;24.546;2022-09-13T00:38:35;97849.69;;;17.65;78.25
20023;BME280;10172;42.054;24.546;2022-09-13T00:41:03;97843.75;;;17.54;79.53
20023;BME280;10172;42.054;24.546;2022-09-13T00:43:59;97841.06;;;17.79;78.56
20023;BME280;10172;42.054;24.546;2022-09-13T00:48:57;97837.41;;;17.63;78.36
20023;BME280;10172;42.054;24.546;2022-09-13T00:51:24;97835.31;;;17.74;78.60
20023;BME280;10172;42.054;24.546;2022-09-13T00:53:52;97822.94;;;17.56;78.86
20023;BME280;10172;42.054;24.546;2022-09-13T00:56:33;97821.69;;;17.50;78.72
20023;BME280;10172;42.054;24.546;2022-09-13T00:59:12;97829.53;;;17.61;79.04
20023;BME280;10172;42.054;24.546;2022-09-13T01:01:52;97825.97;;;17.35;79.83
20023;BME280;10172;42.054;24.546;2022-09-13T01:04:20;97821.75;;;17.15;81.56
20023;BME280;10172;42.054;24.546;2022-09-13T01:06:48;97807.69;;;17.47;79.54
20023;BME280;10172;42.054;24.546;2022-09-13T01:09:14;97814.91;;;17.38;80.77
20023;BME280;10172;42.054;24.546;2022-09-13T01:11:48;97803.63;;;17.60;78.40
20023;BME280;10172;42.054;24.546;2022-09-13T01:14:18;97800.34;;;17.74;77.40
20023;BME280;10172;42.054;24.546;2022-09-13T01:16:45;97808.69;;;17.63;77.79
20023;BME280;10172;42.054;24.546;2022-09-13T01:19:11;97814.72;;;17.40;78.78
20023;BME280;10172;42.054;24.546;2022-09-13T01:35:28;97818.69;;;18.55;73.01
20023;BME280;10172;42.054;24.546;2022-09-13T01:51:35;97805.56;;;17.07;81.10
20023;BME280;10172;42.054;24.546;2022-09-13T01:56:47;97808.38;;;17.23;80.41
20023;BME280;10172;42.054;24.546;2022-09-13T01:59:20;97802.44;;;17.37;77.86
20023;BME280;10172;42.054;24.546;2022-09-13T02:01:58;97801.16;;;17.49;79.01
20023;BME280;10172;42.054;24.546;2022-09-13T02:04:29;97808.72;;;17.71;76.52
20023;BME280;10172;42.054;24.546;2022-09-13T02:07:12;97802.63;;;17.61;77.23
20023;BME280;10172;42.054;24.546;2022-09-13T02:09:43;97811.03;;;16.80;83.23
20023;BME280;10172;42.054;24.546;2022-09-13T02:12:19;97790.25;;;16.64;81.79
20023;BME280;10172;42.054;24.546;2022-09-13T02:14:52;97806.19;;;17.01;81.34
20023;BME280;10172;42.054;24.546;2022-09-13T02:17:23;97795.38;;;16.57;84.10
20023;BME280;10172;42.054;24.546;2022-09-13T02:20:12;97794.25;;;16.78;83.83
20023;BME280;10172;42.054;24.546;2022-09-13T02:22:45;97795.19;;;17.12;80.73
20023;BME280;10172;42.054;24.546;2022-09-13T02:25:15;97791.81;;;17.10;80.40
20023;BME280;10172;42.054;24.546;2022-09-13T02:27:46;97792.56;;;16.49;82.82
20023;BME280;10172;42.054;24.546;2022-09-13T02:30:13;97787.06;;;16.51;82.65
20023;BME280;10172;42.054;24.546;2022-09-13T02:33:03;97792.09;;;16.36;84.37
20023;BME280;10172;42.054;24.546;2022-09-13T02:35:34;97787.78;;;16.08;87.50
20023;BME280;10172;42.054;24.546;2022-09-13T02:38:04;97788.66;;;16.44;84.03
20023;BME280;10172;42.054;24.546;2022-09-13T02:40:38;97787.53;;;16.46;81.72
20023;BME280;10172;42.054;24.546;2022-09-13T02:43:20;97783.00;;;16.47;81.87
20023;BME280;10172;42.054;24.546;2022-09-13T02:45:52;97775.91;;;16.55;81.06
20023;BME280;10172;42.054;24.546;2022-09-13T02:48:38;97777.81;;;16.63;82.16
20023;BME280;10172;42.054;24.546;2022-09-13T02:52:00;97781.72;;;16.68;80.03
20023;BME280;10172;42.054;24.546;2022-09-13T02:57:11;97787.69;;;16.98;77.05
20023;BME280;10172;42.054;24.546;2022-09-13T02:59:39;97794.56;;;17.18;75.71
20023;BME280;10172;42.054;24.546;2022-09-13T03:02:08;97795.09;;;17.47;74.81
20023;BME280;10172;42.054;24.546;2022-09-13T03:04:35;97792.16;;;16.71;79.13
20023;BME280;10172;42.054;24.546;2022-09-13T03:07:02;97795.00;;;17.05;77.25
20023;BME280;10172;42.054;24.546;2022-09-13T03:09:29;97795.16;;;17.29;74.73
20023;BME280;10172;42.054;24.546;2022-09-13T03:14:58;97795.72;;;17.41;74.60
20023;BME280;10172;42.054;24.546;2022-09-13T03:17:40;97815.00;;;16.58;81.74
20023;BME280;10172;42.054;24.546;2022-09-13T03:20:22;97801.06;;;16.72;77.39
20023;BME280;10172;42.054;24.546;2022-09-13T03:30:49;97815.69;;;17.13;77.45
20023;BME280;10172;42.054;24.546;2022-09-13T03:33:32;97818.31;;;17.05;76.38
20023;BME280;10172;42.054;24.546;2022-09-13T03:38:38;97813.72;;;16.97;79.00
20023;BME280;10172;42.054;24.546;2022-09-13T03:41:11;97814.94;;;16.85;79.07
20023;BME280;10172;42.054;24.546;2022-09-13T03:46:05;97807.44;;;17.32;77.95
20023;BME280;10172;42.054;24.546;2022-09-13T03:48:35;97813.56;;;17.16;79.01
20023;BME280;10172;42.054;24.546;2022-09-13T03:51:04;97814.31;;;17.09;79.51
20023;BME280;10172;42.054;24.546;2022-09-13T03:53:31;97816.25;;;16.99;80.43
20023;BME280;10172;42.054;24.546;2022-09-13T03:55:58;97812.59;;;17.25;79.72
20023;BME280;10172;42.054;24.546;2022-09-13T03:58:24;97821.09;;;17.39;79.47
20023;BME280;10172;42.054;24.546;2022-09-13T04:00:50;97819.88;;;17.33;80.40
20023;BME280;10172;42.054;24.546;2022-09-13T04:03:18;97816.31;;;17.50;79.33
20023;BME280;10172;42.054;24.546;2022-09-13T04:05:44;97824.63;;;17.39;79.72
20023;BME280;10172;42.054;24.546;2022-09-13T04:08:10;97818.19;;;17.32;80.68
20023;BME280;10172;42.054;24.546;2022-09-13T04:10:36;97807.16;;;17.61;79.87
20023;BME280;10172;42.054;24.546;2022-09-13T04:13:02;97802.31;;;17.64;79.25
20023;BME280;10172;42.054;24.546;2022-09-13T04:15:28;97804.63;;;17.59;80.96
20023;BME280;10172;42.054;24.546;2022-09-13T04:17:55;97814.91;;;17.38;82.26
20023;BME280;10172;42.054;24.546;2022-09-13T04:20:21;97817.47;;;17.48;82.43
20023;BME280;10172;42.054;24.546;2022-09-13T04:22:56;97813.59;;;17.68;82.09
20023;BME280;10172;42.054;24.546;2022-09-13T04:25:22;97805.31;;;17.61;82.18
20023;BME280;10172;42.054;24.546;2022-09-13T04:27:52;97810.56;;;17.45;83.60
20023;BME280;10172;42.054;24.546;2022-09-13T04:30:18;97814.94;;;17.46;83.82
20023;BME280;10172;42.054;24.546;2022-09-13T04:32:43;97811.50;;;17.87;82.27
20023;BME280;10172;42.054;24.546;2022-09-13T04:35:10;97820.75;;;17.85;81.41
20023;BME280;10172;42.054;24.546;2022-09-13T04:37:36;97812.88;;;17.91;81.87
20023;BME280;10172;42.054;24.546;2022-09-13T04:40:02;97826.66;;;17.88;80.50
20023;BME280;10172;42.054;24.546;2022-09-13T04:42:28;97818.81;;;17.69;82.28
20023;BME280;10172;42.054;24.546;2022-09-13T04:44:53;97823.84;;;17.64;82.19
20023;BME280;10172;42.054;24.546;2022-09-13T04:47:19;97829.00;;;17.83;81.10
20023;BME280;10172;42.054;24.546;2022-09-13T04:49:45;97817.47;;;17.99;80.33
20023;BME280;10172;42.054;24.546;2022-09-13T04:52:12;97819.56;;;17.87;80.78
20023;BME280;10172;42.054;24.546;2022-09-13T04:54:38;97822.97;;;17.89;80.47
20023;BME280;10172;42.054;24.546;2022-09-13T04:57:03;97837.94;;;17.92;79.83
20023;BME280;10172;42.054;24.546;2022-09-13T04:59:29;97825.94;;;18.20;78.55
20023;BME280;10172;42.054;24.546;2022-09-13T05:01:54;97836.44;;;17.89;79.93
20023;BME280;10172;42.054;24.546;2022-09-13T05:04:20;97844.50;;;17.64;81.72
20023;BME280;10172;42.054;24.546;2022-09-13T05:06:45;97847.03;;;17.22;84.44
20023;BME280;10172;42.054;24.546;2022-09-13T05:09:13;97852.59;;;17.28;84.20
20023;BME280;10172;42.054;24.546;2022-09-13T05:11:39;97846.84;;;17.23;84.87
20023;BME280;10172;42.054;24.546;2022-09-13T05:14:05;97848.69;;;17.41;83.25
20023;BME280;10172;42.054;24.546;2022-09-13T05:16:32;97844.78;;;17.78;82.50
20023;BME280;10172;42.054;24.546;2022-09-13T05:18:58;97854.63;;;17.52;83.23
20023;BME280;10172;42.054;24.546;2022-09-13T05:21:24;97847.19;;;17.89;81.22
20023;BME280;10172;42.054;24.546;2022-09-13T05:23:53;97855.03;;;17.57;82.50
20023;BME280;10172;42.054;24.546;2022-09-13T05:26:19;97841.41;;;17.84;81.74
20023;BME280;10172;42.054;24.546;2022-09-13T05:28:45;97841.63;;;18.33;79.80
20023;BME280;10172;42.054;24.546;2022-09-13T05:31:23;97846.97;;;18.17;79.71
20023;BME280;10172;42.054;24.546;2022-09-13T05:33:54;97850.22;;;18.28;80.24
20023;BME280;10172;42.054;24.546;2022-09-13T05:36:20;97827.66;;;17.87;80.90
20023;BME280;10172;42.054;24.546;2022-09-13T05:38:45;97853.78;;;18.37;80.38
20023;BME280;10172;42.054;24.546;2022-09-13T05:41:11;97841.84;;;18.39;78.93
20023;BME280;10172;42.054;24.546;2022-09-13T05:43:36;97845.78;;;18.53;78.18
20023;BME280;10172;42.054;24.546;2022-09-13T05:46:08;97847.16;;;18.57;77.33
20023;BME280;10172;42.054;24.546;2022-09-13T05:48:34;97850.19;;;18.54;77.16
20023;BME280;10172;42.054;24.546;2022-09-13T05:51:29;97850.66;;;18.49;77.14
20023;BME280;10172;42.054;24.546;2022-09-13T05:53:55;97855.75;;;18.19;77.22
20023;BME280;10172;42.054;24.546;2022-09-13T05:56:27;97857.97;;;18.31;77.99
20023;BME280;10172;42.054;24.546;2022-09-13T05:58:53;97850.38;;;18.69;76.36
20023;BME280;10172;42.054;24.546;2022-09-13T06:01:22;97853.66;;;19.21;74.01
20023;BME280;10172;42.054;24.546;2022-09-13T06:03:52;97848.25;;;19.21;72.97
20023;BME280;10172;42.054;24.546;2022-09-13T06:06:18;97846.88;;;18.84;74.90
20023;BME280;10172;42.054;24.546;2022-09-13T06:08:44;97853.66;;;19.13;73.55
20023;BME280;10172;42.054;24.546;2022-09-13T06:11:11;97857.75;;;19.49;72.30
20023;BME280;10172;42.054;24.546;2022-09-13T06:13:38;97855.69;;;19.35;71.44
20023;BME280;10172;42.054;24.546;2022-09-13T06:16:06;97853.50;;;19.79;69.36
20023;BME280;10172;42.054;24.546;2022-09-13T06:18:32;97855.03;;;19.25;69.46
20023;BME280;10172;42.054;24.546;2022-09-13T06:21:10;97858.41;;;19.43;69.27
20023;BME280;10172;42.054;24.546;2022-09-13T06:23:36;97867.50;;;19.50;69.26
20023;BME280;10172;42.054;24.546;2022-09-13T06:28:28;97857.72;;;19.33;69.91
20023;BME280;10172;42.054;24.546;2022-09-13T06:31:04;97872.88;;;19.58;69.36
20023;BME280;10172;42.054;24.546;2022-09-13T06:33:31;97866.84;;;19.40;69.87
20023;BME280;10172;42.054;24.546;2022-09-13T06:36:12;97882.69;;;19.43;70.51
20023;BME280;10172;42.054;24.546;2022-09-13T06:38:45;97871.56;;;19.62;69.66
20023;BME280;10172;42.054;24.546;2022-09-13T06:41:13;97875.53;;;19.90;68.00
20023;BME280;10172;42.054;24.546;2022-09-13T06:43:40;97885.31;;;20.07;67.97
20023;BME280;10172;42.054;24.546;2022-09-13T06:46:11;97884.00;;;19.55;70.20
20023;BME280;10172;42.054;24.546;2022-09-13T06:48:38;97879.31;;;19.65;68.97
20023;BME280;10172;42.054;24.546;2022-09-13T06:51:08;97871.31;;;19.88;67.37
20023;BME280;10172;42.054;24.546;2022-09-13T06:53:35;97869.63;;;20.50;68.03
20023;BME280;10172;42.054;24.546;2022-09-13T06:56:10;97868.06;;;20.24;65.91
20023;BME280;10172;42.054;24.546;2022-09-13T06:58:37;97883.13;;;20.03;67.46
20023;BME280;10172;42.054;24.546;2022-09-13T07:03:44;97886.38;;;19.50;68.60
20023;BME280;10172;42.054;24.546;2022-09-13T07:06:15;97886.66;;;19.95;66.87
20023;BME280;10172;42.054;24.546;2022-09-13T07:08:42;97880.72;;;20.16;67.00
20023;BME280;10172;42.054;24.546;2022-09-13T07:11:10;97888.00;;;19.99;66.04
20023;BME280;10172;42.054;24.546;2022-09-13T07:13:36;97890.03;;;20.05;65.52
20023;BME280;10172;42.054;24.546;2022-09-13T07:16:08;97894.13;;;19.85;65.62
20023;BME280;10172;42.054;24.546;2022-09-13T07:18:34;97892.09;;;19.79;66.69
20023;BME280;10172;42.054;24.546;2022-09-13T07:21:05;97892.22;;;20.02;64.87
20023;BME280;10172;42.054;24.546;2022-09-13T07:23:32;97900.50;;;20.00;66.33
20023;BME280;10172;42.054;24.546;2022-09-13T07:25:59;97908.28;;;19.71;66.07
20023;BME280;10172;42.054;24.546;2022-09-13T07:28:32;97911.91;;;20.35;65.82
20023;BME280;10172;42.054;24.546;2022-09-13T07:31:19;97909.97;;;19.96;67.94
20023;BME280;10172;42.054;24.546;2022-09-13T07:33:46;97911.31;;;19.92;67.87
20023;BME280;10172;42.054;24.546;2022-09-13T07:36:13;97912.00;;;19.86;68.69
20023;BME280;10172;42.054;24.546;2022-09-13T07:38:42;97903.53;;;20.05;68.87
20023;BME280;10172;42.054;24.546;2022-09-13T07:41:12;97910.59;;;20.14;67.36
20023;BME280;10172;42.054;24.546;2022-09-13T07:43:38;97914.00;;;20.08;68.33
20023;BME280;10172;42.054;24.546;2022-09-13T07:46:05;97901.22;;;19.62;69.80
20023;BME280;10172;42.054;24.546;2022-09-13T07:48:33;97909.25;;;20.18;68.47
20023;BME280;10172;42.054;24.546;2022-09-13T07:51:06;97914.25;;;20.46;68.26
20023;BME280;10172;42.054;24.546;2022-09-13T07:53:33;97902.97;;;20.34;68.73
20023;BME280;10172;42.054;24.546;2022-09-13T07:56:04;97908.03;;;20.21;68.09
20023;BME280;10172;42.054;24.546;2022-09-13T07:58:32;97911.75;;;20.20;68.50
20023;BME280;10172;42.054;24.546;2022-09-13T08:03:28;97905.56;;;19.87;69.00
20023;BME280;10172;42.054;24.546;2022-09-13T08:05:54;97906.22;;;20.13;70.10
20023;BME280;10172;42.054;24.546;2022-09-13T08:08:20;97907.47;;;20.50;68.68
20023;BME280;10172;42.054;24.546;2022-09-13T08:10:45;97897.13;;;19.98;68.90
20023;BME280;10172;42.054;24.546;2022-09-13T08:13:11;97895.19;;;20.23;68.33
20023;BME280;10172;42.054;24.546;2022-09-13T08:15:36;97897.88;;;20.39;67.91
20023;BME280;10172;42.054;24.546;2022-09-13T08:18:02;97901.09;;;20.43;65.87
20023;BME280;10172;42.054;24.546;2022-09-13T08:20:27;97890.38;;;20.65;65.10
20023;BME280;10172;42.054;24.546;2022-09-13T08:22:53;97892.13;;;20.42;67.97
20023;BME280;10172;42.054;24.546;2022-09-13T08:25:19;97904.22;;;19.91;62.43
20023;BME280;10172;42.054;24.546;2022-09-13T08:27:44;97900.81;;;20.30;60.37
20023;BME280;10172;42.054;24.546;2022-09-13T08:30:10;97893.63;;;20.45;60.79
20023;BME280;10172;42.054;24.546;2022-09-13T08:32:35;97884.09;;;20.65;61.65
20023;BME280;10172;42.054;24.546;2022-09-13T08:35:01;97890.63;;;21.09;58.71
20023;BME280;10172;42.054;24.546;2022-09-13T08:37:26;97892.88;;;21.28;57.40
20023;BME280;10172;42.054;24.546;2022-09-13T08:39:52;97900.69;;;21.23;56.82
20023;BME280;10172;42.054;24.546;2022-09-13T08:45:14;97900.19;;;21.42;55.08
20023;BME280;10172;42.054;24.546;2022-09-13T08:47:47;97902.84;;;20.66;57.50
20023;BME280;10172;42.054;24.546;2022-09-13T08:50:20;97894.94;;;20.87;58.37
20023;BME280;10172;42.054;24.546;2022-09-13T08:53:28;97905.47;;;20.82;58.81
20023;BME280;10172;42.054;24.546;2022-09-13T08:56:07;97899.66;;;20.94;54.25
20023;BME280;10172;42.054;24.546;2022-09-13T09:01:14;97904.34;;;21.08;53.80
20023;BME280;10172;42.054;24.546;2022-09-13T09:03:49;97891.13;;;21.13;54.26
20023;BME280;10172;42.054;24.546;2022-09-13T09:06:20;97890.22;;;20.59;56.75
20023;BME280;10172;42.054;24.546;2022-09-13T09:09:33;97897.84;;;20.86;56.39
20023;BME280;10172;42.054;24.546;2022-09-13T09:14:46;97883.97;;;21.80;52.30
20023;BME280;10172;42.054;24.546;2022-09-13T09:17:20;97883.03;;;22.25;48.96
20023;BME280;10172;42.054;24.546;2022-09-13T09:19:55;97885.34;;;21.98;49.95
20023;BME280;10172;42.054;24.546;2022-09-13T09:22:33;97891.44;;;22.30;47.85
20023;BME280;10172;42.054;24.546;2022-09-13T09:25:00;97884.25;;;21.85;49.10
20023;BME280;10172;42.054;24.546;2022-09-13T09:27:25;97886.97;;;21.85;49.84
20023;BME280;10172;42.054;24.546;2022-09-13T09:29:53;97881.91;;;21.82;50.58
20023;BME280;10172;42.054;24.546;2022-09-13T09:38:36;97863.84;;;22.55;48.57
20023;BME280;10172;42.054;24.546;2022-09-13T09:40:42;97862.72;;;22.79;49.24
20023;BME280;10172;42.054;24.546;2022-09-13T09:43:22;97869.56;;;22.31;47.41
20023;BME280;10172;42.054;24.546;2022-09-13T09:45:51;97867.84;;;22.89;47.27
20023;BME280;10172;42.054;24.546;2022-09-13T09:48:21;97878.69;;;23.67;43.87
20023;BME280;10172;42.054;24.546;2022-09-13T09:50:53;97873.19;;;23.18;45.59
20023;BME280;10172;42.054;24.546;2022-09-13T09:53:38;97875.47;;;23.57;45.66
20023;BME280;10172;42.054;24.546;2022-09-13T09:56:29;97875.72;;;22.25;47.18
20023;BME280;10172;42.054;24.546;2022-09-13T09:58:55;97881.81;;;22.42;46.90
20023;BME280;10172;42.054;24.546;2022-09-13T10:01:25;97873.22;;;22.68;46.86
20023;BME280;10172;42.054;24.546;2022-09-13T10:06:39;97871.44;;;23.32;42.27
20023;BME280;10172;42.054;24.546;2022-09-13T10:11:53;97862.84;;;22.56;45.85
20023;BME280;10172;42.054;24.546;2022-09-13T10:14:36;97863.56;;;22.80;46.73
20023;BME280;10172;42.054;24.546;2022-09-13T10:19:29;97863.00;;;23.41;41.97
20023;BME280;10172;42.054;24.546;2022-09-13T10:22:04;97859.25;;;23.06;43.85
20023;BME280;10172;42.054;24.546;2022-09-13T10:24:31;97848.03;;;22.74;45.77
20023;BME280;10172;42.054;24.546;2022-09-13T10:27:00;97850.88;;;22.66;45.22
20023;BME280;10172;42.054;24.546;2022-09-13T10:29:27;97850.31;;;23.06;44.78
20023;BME280;10172;42.054;24.546;2022-09-13T10:31:54;97845.25;;;23.66;43.09
20023;BME280;10172;42.054;24.546;2022-09-13T10:36:56;97839.75;;;22.46;45.87
20023;BME280;10172;42.054;24.546;2022-09-13T10:39:23;97829.94;;;22.45;46.31
20023;BME280;10172;42.054;24.546;2022-09-13T10:41:59;97827.06;;;22.46;46.44
20023;BME280;10172;42.054;24.546;2022-09-13T10:46:54;97822.13;;;22.35;45.22
20023;BME280;10172;42.054;24.546;2022-09-13T10:49:44;97816.69;;;22.86;45.81
20023;BME280;10172;42.054;24.546;2022-09-13T10:52:34;97812.69;;;23.66;44.08
20023;BME280;10172;42.054;24.546;2022-09-13T10:55:36;97818.00;;;24.09;42.63
20023;BME280;10172;42.054;24.546;2022-09-13T11:09:25;97807.91;;;22.33;44.99
20023;BME280;10172;42.054;24.546;2022-09-13T11:49:33;97775.66;;;24.21;42.70
20023;BME280;10172;42.054;24.546;2022-09-13T11:57:18;97779.19;;;24.62;41.71
20023;BME280;10172;42.054;24.546;2022-09-13T12:02:25;97758.41;;;25.22;40.41
20023;BME280;10172;42.054;24.546;2022-09-13T12:07:43;97755.63;;;25.94;38.67
20023;BME280;10172;42.054;24.546;2022-09-13T12:12:48;97765.28;;;25.05;40.46
20023;BME280;10172;42.054;24.546;2022-09-13T12:17:50;97750.41;;;25.79;40.39
20023;BME280;10172;42.054;24.546;2022-09-13T12:20:37;97759.25;;;26.52;37.59
20023;BME280;10172;42.054;24.546;2022-09-13T12:23:11;97748.59;;;27.13;37.55
20023;BME280;10172;42.054;24.546;2022-09-13T12:25:45;97751.91;;;25.82;37.60
20023;BME280;10172;42.054;24.546;2022-09-13T12:28:21;97762.47;;;24.65;40.87
20023;BME280;10172;42.054;24.546;2022-09-13T12:30:52;97758.41;;;25.48;39.45
20023;BME280;10172;42.054;24.546;2022-09-13T12:33:20;97762.78;;;25.69;38.39
20023;BME280;10172;42.054;24.546;2022-09-13T12:35:53;97748.81;;;25.52;37.91
20023;BME280;10172;42.054;24.546;2022-09-13T12:52:15;97750.22;;;24.01;38.41
20023;BME280;10172;42.054;24.546;2022-09-13T12:55:06;97756.75;;;24.60;38.07
20023;BME280;10172;42.054;24.546;2022-09-13T13:00:33;97749.63;;;24.05;39.20
20023;BME280;10172;42.054;24.546;2022-09-13T13:05:44;97753.00;;;24.61;38.17
20023;BME280;10172;42.054;24.546;2022-09-13T13:13:33;97748.72;;;25.91;37.62
20023;BME280;10172;42.054;24.546;2022-09-13T13:16:30;97750.34;;;26.63;37.80
20023;BME280;10172;42.054;24.546;2022-09-13T13:19:30;97759.66;;;26.49;37.61
20023;BME280;10172;42.054;24.546;2022-09-13T13:27:51;97758.16;;;25.89;37.21
20023;BME280;10172;42.054;24.546;2022-09-13T13:33:27;97754.75;;;26.64;35.68
20023;BME280;10172;42.054;24.546;2022-09-13T13:35:53;97750.34;;;26.19;35.79
20023;BME280;10172;42.054;24.546;2022-09-13T13:40:49;97752.38;;;26.74;35.29
20023;BME280;10172;42.054;24.546;2022-09-13T13:43:29;97762.47;;;26.80;35.50
20023;BME280;10172;42.054;24.546;2022-09-13T13:45:57;97760.81;;;26.72;35.18
20023;BME280;10172;42.054;24.546;2022-09-13T13:48:36;97764.41;;;26.22;35.50
20023;BME280;10172;42.054;24.546;2022-09-13T13:51:12;97759.66;;;25.45;36.93
20023;BME280;10172;42.054;24.546;2022-09-13T13:53:39;97765.09;;;25.19;37.25
20023;BME280;10172;42.054;24.546;2022-09-13T13:59:24;97766.25;;;24.23;39.60
20023;BME280;10172;42.054;24.546;2022-09-13T14:01:55;97767.56;;;24.34;40.21
20023;BME280;10172;42.054;24.546;2022-09-13T14:07:12;97766.59;;;25.48;38.72
20023;BME280;10172;42.054;24.546;2022-09-13T14:12:33;97778.03;;;26.02;36.46
20023;BME280;10172;42.054;24.546;2022-09-13T14:20:26;97772.66;;;26.47;35.96
20023;BME280;10172;42.054;24.546;2022-09-13T14:23:10;97769.06;;;25.82;36.92
20023;BME280;10172;42.054;24.546;2022-09-13T14:25:35;97768.16;;;26.14;37.08
20023;BME280;10172;42.054;24.546;2022-09-13T14:28:01;97779.31;;;26.64;36.16
20023;BME280;10172;42.054;24.546;2022-09-13T14:30:31;97775.25;;;26.29;36.66
20023;BME280;10172;42.054;24.546;2022-09-13T14:32:59;97774.66;;;26.27;37.02
20023;BME280;10172;42.054;24.546;2022-09-13T14:35:32;97772.81;;;26.65;35.14
20023;BME280;10172;42.054;24.546;2022-09-13T14:38:18;97778.69;;;25.13;36.31
20023;BME280;10172;42.054;24.546;2022-09-13T14:40:53;97786.44;;;24.55;36.55
20023;BME280;10172;42.054;24.546;2022-09-13T14:43:24;97779.94;;;24.97;36.82
20023;BME280;10172;42.054;24.546;2022-09-13T14:46:24;97780.19;;;25.35;36.74
20023;BME280;10172;42.054;24.546;2022-09-13T14:49:00;97779.56;;;25.72;36.44
20023;BME280;10172;42.054;24.546;2022-09-13T14:51:33;97778.94;;;25.64;36.35
20023;BME280;10172;42.054;24.546;2022-09-13T14:54:10;97785.00;;;25.72;37.16
20023;BME280;10172;42.054;24.546;2022-09-13T14:56:42;97783.16;;;25.60;36.41
20023;BME280;10172;42.054;24.546;2022-09-13T14:59:26;97782.50;;;25.58;36.30
20023;BME280;10172;42.054;24.546;2022-09-13T15:01:52;97767.38;;;25.94;35.96
20023;BME280;10172;42.054;24.546;2022-09-13T15:04:19;97773.19;;;26.24;35.22
20023;BME280;10172;42.054;24.546;2022-09-13T15:06:46;97766.66;;;26.38;34.14
20023;BME280;10172;42.054;24.546;2022-09-13T15:09:15;97770.50;;;25.91;34.19
20023;BME280;10172;42.054;24.546;2022-09-13T15:14:31;97764.47;;;26.47;35.22
20023;BME280;10172;42.054;24.546;2022-09-13T15:17:17;97765.41;;;26.72;36.28
20023;BME280;10172;42.054;24.546;2022-09-13T15:19:47;97770.41;;;27.19;35.89
20023;BME280;10172;42.054;24.546;2022-09-13T15:22:28;97766.66;;;26.83;33.76
20023;BME280;10172;42.054;24.546;2022-09-13T15:24:56;97769.25;;;26.58;36.92
20023;BME280;10172;42.054;24.546;2022-09-13T15:27:28;97773.25;;;25.32;41.42
20023;BME280;10172;42.054;24.546;2022-09-13T15:30:04;97761.66;;;24.84;45.48
20023;BME280;10172;42.054;24.546;2022-09-13T15:32:39;97762.97;;;24.95;45.98
20023;BME280;10172;42.054;24.546;2022-09-13T15:35:22;97764.59;;;26.07;45.29
20023;BME280;10172;42.054;24.546;2022-09-13T15:38:00;97771.09;;;26.06;44.85
20023;BME280;10172;42.054;24.546;2022-09-13T15:40:28;97773.22;;;26.11;44.47
20023;BME280;10172;42.054;24.546;2022-09-13T15:42:53;97764.47;;;25.63;43.02
20023;BME280;10172;42.054;24.546;2022-09-13T15:45:20;97775.78;;;25.73;42.69
20023;BME280;10172;42.054;24.546;2022-09-13T15:47:47;97772.44;;;25.78;44.07
20023;BME280;10172;42.054;24.546;2022-09-13T15:50:24;97779.94;;;25.82;44.83
20023;BME280;10172;42.054;24.546;2022-09-13T15:52:53;97786.91;;;25.59;45.31
20023;BME280;10172;42.054;24.546;2022-09-13T15:55:19;97787.06;;;25.44;46.31
20023;BME280;10172;42.054;24.546;2022-09-13T15:57:45;97786.81;;;24.86;46.93
20023;BME280;10172;42.054;24.546;2022-09-13T16:00:25;97792.28;;;23.28;51.91
20023;BME280;10172;42.054;24.546;2022-09-13T16:02:52;97791.31;;;22.72;53.27
20023;BME280;10172;42.054;24.546;2022-09-13T16:05:18;97792.03;;;22.81;52.56
20023;BME280;10172;42.054;24.546;2022-09-13T16:07:44;97796.09;;;22.91;51.50
20023;BME280;10172;42.054;24.546;2022-09-13T16:10:12;97798.09;;;23.25;49.73
20023;BME280;10172;42.054;24.546;2022-09-13T16:12:38;97796.38;;;22.96;49.95
20023;BME280;10172;42.054;24.546;2022-09-13T16:15:04;97787.66;;;22.15;51.61
20023;BME280;10172;42.054;24.546;2022-09-13T16:17:30;97792.47;;;21.61;53.57
20023;BME280;10172;42.054;24.546;2022-09-13T16:19:55;97783.81;;;22.38;51.59
20023;BME280;10172;42.054;24.546;2022-09-13T16:22:21;97784.66;;;21.80;52.48
20023;BME280;10172;42.054;24.546;2022-09-13T16:24:48;97790.34;;;21.33;54.16
20023;BME280;10172;42.054;24.546;2022-09-13T16:27:16;97793.94;;;21.49;54.45
20023;BME280;10172;42.054;24.546;2022-09-13T16:29:42;97793.34;;;21.24;55.10
20023;BME280;10172;42.054;24.546;2022-09-13T16:32:07;97799.00;;;21.06;54.75
20023;BME280;10172;42.054;24.546;2022-09-13T16:34:33;97794.75;;;20.89;56.06